Hlavní strana
METAR-TAF:

METAR-TAF

Letiště :

Evenes, Norsko

zeměpisná šířka: 68-31N, zeměpisná délka: 016-41E, výška: 26 m

Aktuální stav počasí

Zpráva byla vytvořena před 21 hodinami a 46 minutami, v 23:50 UTC
Západní vítr 2 kt
Teplota 7°C
Vlhkost vzduchu 93%
Tlak 1007 hPa
Viditelnost 10 km a více

METAR: ENEV 202350Z AUTO 27002KT 9999 BKN038/// 07/06 Q1007 RMK WIND 1400FT 23012KT

Čas: 23:36 (21:36 UTC)

Předpověď počasí

Zpráva byla vytvořena před 16 hodinami a 36 minutami, v 05:00 UTC
Předpověď platná od 21 v 06 UTC do 21 v 15 UTC
Západní vítr 8 kt
Viditelnost 10 km a více
Skoro jasno ve výšce 1000 ft
Oblačno až skoro zataženo ve výšce 3000 ft
slabé dešťové přeháňky

TAF: ENEV 210500Z 2106/2115 26008KT 9999 -SHRA FEW010 BKN030

Stav a předpovědi počasí z více než 4 000 letišť (zprávy METAR a TAF).

Červené a žluté tečky na mapě představují dostupné meteorologické stanice.

Když kurzor umístíte na tečku, zobrazí se název stanice.

Pak kliknutím zobrazíte stav a předpověď počasí.

Chcete-li změnit mapu, kliknutím na zelené tlačítko se znaménkem +mapu přiblížíte, kliknutím na zelené tlačítko se znaménkem – mapu oddálíte a kliknutím na zelené šipky přejdete na sousední mapy.


METAR-TAF: